createdAt,value
2023-05-23T00:00:48.384Z,34.07
2023-05-23T00:03:22.839Z,30.77
2023-05-23T00:05:56.414Z,45.60
2023-05-23T00:08:28.222Z,37.37
2023-05-23T00:10:59.955Z,36.50
2023-05-23T00:13:34.827Z,39.07
2023-05-23T00:16:09.623Z,39.00
2023-05-23T00:18:43.181Z,44.97
2023-05-23T00:21:16.019Z,41.00
2023-05-23T00:23:47.735Z,49.23
2023-05-23T00:26:19.430Z,48.13
2023-05-23T00:28:51.213Z,51.13
2023-05-23T00:31:23.466Z,49.73
2023-05-23T00:33:55.410Z,53.30
2023-05-23T00:36:27.163Z,55.77
2023-05-23T00:38:58.897Z,54.87
2023-05-23T00:41:30.782Z,53.70
2023-05-23T00:44:02.996Z,63.70
2023-05-23T00:46:34.877Z,53.40
2023-05-23T00:49:06.766Z,53.73
2023-05-23T00:51:38.923Z,67.60
2023-05-23T00:54:10.880Z,61.70
2023-05-23T00:56:43.958Z,64.87
2023-05-23T00:59:16.747Z,67.60
2023-05-23T01:01:50.124Z,65.60
2023-05-23T01:04:26.269Z,66.00
2023-05-23T01:06:58.109Z,77.07
2023-05-23T01:09:31.604Z,77.87
2023-05-23T01:12:25.373Z,73.07
2023-05-23T01:15:02.600Z,69.50
2023-05-23T01:17:58.521Z,93.13
2023-05-23T01:20:49.033Z,76.15
2023-05-23T01:23:45.904Z,80.57
2023-05-23T01:26:29.644Z,96.50
2023-05-23T01:29:10.430Z,88.50
2023-05-23T01:31:46.779Z,101.80
2023-05-23T01:34:19.316Z,119.20
2023-05-23T01:36:55.636Z,110.20
2023-05-23T01:39:27.547Z,101.80
2023-05-23T01:41:59.432Z,93.57
2023-05-23T01:44:32.769Z,109.80
2023-05-23T01:47:08.296Z,100.73
2023-05-23T01:49:41.962Z,96.33
2023-05-23T01:52:15.628Z,112.85
2023-05-23T01:54:49.127Z,105.73
2023-05-23T01:57:22.674Z,108.67
2023-05-23T01:59:54.497Z,102.37
2023-05-23T02:02:26.343Z,113.87
2023-05-23T02:04:58.509Z,113.43
2023-05-23T02:07:30.549Z,106.67
2023-05-23T02:10:03.336Z,119.03
2023-05-23T02:12:35.154Z,110.33
2023-05-23T02:15:07.795Z,125.60
2023-05-23T02:17:39.674Z,106.20
2023-05-23T02:20:11.628Z,127.47
2023-05-23T02:22:43.381Z,121.23
2023-05-23T02:25:15.897Z,145.95
2023-05-23T02:27:47.670Z,142.50
2023-05-23T02:30:19.466Z,123.13
2023-05-23T02:32:51.791Z,125.10
2023-05-23T02:35:23.660Z,126.10
2023-05-23T02:37:55.486Z,138.30
2023-05-23T02:40:27.282Z,125.27
2023-05-23T02:42:59.025Z,122.73
2023-05-23T02:45:30.853Z,128.90
2023-05-23T02:48:02.691Z,132.57
2023-05-23T02:50:34.582Z,127.47
2023-05-23T02:53:06.342Z,145.13
2023-05-23T02:55:38.908Z,137.38
2023-05-23T02:58:10.949Z,131.03
2023-05-23T03:00:44.033Z,121.37
2023-05-23T03:03:17.013Z,132.97
2023-05-23T03:05:49.067Z,128.70
2023-05-23T03:08:20.929Z,139.73
2023-05-23T03:10:53.179Z,143.13
2023-05-23T03:13:24.915Z,158.95
2023-05-23T03:15:56.705Z,130.53
2023-05-23T03:18:28.518Z,141.73
2023-05-23T03:21:00.267Z,150.17
2023-05-23T03:23:31.949Z,118.33
2023-05-23T03:26:04.024Z,138.33
2023-05-23T03:28:35.730Z,148.80
2023-05-23T03:31:07.525Z,153.50
2023-05-23T03:33:40.488Z,138.73
2023-05-23T03:36:12.557Z,142.60
2023-05-23T03:38:44.296Z,145.03
2023-05-23T03:41:16.021Z,123.10
2023-05-23T03:43:48.099Z,130.13
2023-05-23T03:46:19.919Z,122.20
2023-05-23T03:48:51.998Z,120.83
2023-05-23T03:51:24.250Z,132.53
2023-05-23T03:53:55.967Z,117.10
2023-05-23T03:56:27.701Z,115.47
2023-05-23T03:58:59.442Z,116.50
2023-05-23T04:01:31.144Z,115.23
2023-05-23T04:04:03.206Z,124.20
2023-05-23T04:06:35.136Z,113.03
2023-05-23T04:09:06.862Z,107.70
2023-05-23T04:11:38.607Z,114.07
2023-05-23T04:14:11.061Z,109.70
2023-05-23T04:16:44.762Z,119.85
2023-05-23T04:19:17.285Z,110.93
2023-05-23T04:21:49.061Z,121.17
2023-05-23T04:24:21.049Z,121.30
2023-05-23T04:26:52.816Z,113.50
2023-05-23T04:29:26.178Z,104.30
2023-05-23T04:31:58.755Z,112.20
2023-05-23T04:34:31.043Z,107.03
2023-05-23T04:37:03.108Z,104.30
2023-05-23T04:39:34.877Z,94.20
2023-05-23T04:42:07.391Z,94.50
2023-05-23T04:44:39.148Z,98.60
2023-05-23T04:47:11.589Z,102.63
2023-05-23T04:49:43.695Z,108.60
2023-05-23T04:52:15.578Z,89.93
2023-05-23T04:54:48.862Z,94.90
2023-05-23T04:57:20.831Z,93.10
2023-05-23T04:59:52.590Z,102.27
2023-05-23T05:02:24.433Z,101.73
2023-05-23T05:04:56.209Z,106.83
2023-05-23T05:07:29.407Z,92.90
2023-05-23T05:10:01.499Z,84.33
2023-05-23T05:12:33.342Z,90.97
2023-05-23T05:15:05.513Z,98.93
2023-05-23T05:17:38.852Z,90.60
2023-05-23T05:20:11.257Z,85.60
2023-05-23T05:22:43.682Z,82.90
2023-05-23T05:25:15.507Z,87.20
2023-05-23T05:27:47.269Z,97.93
2023-05-23T05:30:19.165Z,82.40
2023-05-23T05:32:51.678Z,88.97
2023-05-23T05:35:23.512Z,94.32
2023-05-23T05:37:55.272Z,93.97
2023-05-23T05:40:27.064Z,98.80
2023-05-23T05:42:58.911Z,91.00
2023-05-23T05:45:31.132Z,94.03
2023-05-23T05:48:03.327Z,85.87
2023-05-23T05:50:35.148Z,88.17
2023-05-23T05:53:08.239Z,82.93
2023-05-23T05:55:40.515Z,85.77
2023-05-23T05:58:12.366Z,87.03
2023-05-23T06:00:44.139Z,95.70
2023-05-23T06:03:16.133Z,86.83
2023-05-23T06:05:47.913Z,94.07
2023-05-23T06:08:19.865Z,88.90
2023-05-23T06:10:51.682Z,89.33
2023-05-23T06:13:23.501Z,88.43
2023-05-23T06:15:55.274Z,86.13
2023-05-23T06:18:27.080Z,83.63
2023-05-23T06:20:58.818Z,99.47
2023-05-23T06:23:30.665Z,87.15
2023-05-23T06:26:02.427Z,84.07
2023-05-23T06:28:34.686Z,84.43
2023-05-23T06:31:06.550Z,89.10
2023-05-23T06:33:38.765Z,77.00
2023-05-23T06:36:10.721Z,88.23
2023-05-23T06:38:42.621Z,82.07
2023-05-23T06:41:14.423Z,87.40
2023-05-23T06:43:46.124Z,82.80
2023-05-23T06:46:17.898Z,76.43
2023-05-23T06:48:54.301Z,85.60
2023-05-23T06:51:31.538Z,74.67
2023-05-23T06:54:03.347Z,69.57
2023-05-23T06:56:35.066Z,71.03
2023-05-23T06:59:06.870Z,71.73
2023-05-23T07:01:38.866Z,73.53
2023-05-23T07:04:12.163Z,65.00
2023-05-23T07:06:44.023Z,70.20
2023-05-23T07:09:15.908Z,60.47
2023-05-23T07:11:47.735Z,66.35
2023-05-23T07:14:20.337Z,61.90
2023-05-23T07:16:52.131Z,65.93
2023-05-23T07:19:24.000Z,70.37
2023-05-23T07:21:55.753Z,59.77
2023-05-23T07:24:27.481Z,64.97
2023-05-23T07:26:59.216Z,69.33
2023-05-23T07:29:30.963Z,64.67
2023-05-23T07:32:02.795Z,64.47
2023-05-23T07:34:34.620Z,64.57
2023-05-23T07:37:06.471Z,66.83
2023-05-23T07:39:38.216Z,65.90
2023-05-23T07:42:10.006Z,65.53
2023-05-23T07:44:42.310Z,65.13
2023-05-23T07:47:14.069Z,66.40
2023-05-23T07:49:47.505Z,65.67
2023-05-23T07:52:20.955Z,64.00
2023-05-23T07:54:52.684Z,62.30
2023-05-23T07:57:24.597Z,66.80
2023-05-23T07:59:56.359Z,58.03
2023-05-23T08:02:28.204Z,56.50
2023-05-23T08:05:00.094Z,62.90
2023-05-23T08:07:31.859Z,55.87
2023-05-23T08:10:03.758Z,56.23
2023-05-23T08:12:35.656Z,63.17
2023-05-23T08:15:08.244Z,58.37
2023-05-23T08:17:40.183Z,58.87
2023-05-23T08:20:12.421Z,59.73
2023-05-23T08:22:44.243Z,59.13
2023-05-23T08:25:16.116Z,55.30
2023-05-23T08:27:47.911Z,55.87
2023-05-23T08:30:19.957Z,53.97
2023-05-23T08:32:56.103Z,54.80
2023-05-23T08:35:29.330Z,51.27
2023-05-23T08:38:02.261Z,49.43
2023-05-23T08:40:35.932Z,44.87
2023-05-23T08:43:07.936Z,46.83
2023-05-23T08:45:40.927Z,45.13
2023-05-23T08:48:14.123Z,50.47
2023-05-23T08:50:47.616Z,46.27
2023-05-23T08:53:23.178Z,45.83
2023-05-23T08:55:58.715Z,47.30
2023-05-23T08:58:32.116Z,41.90
2023-05-23T09:01:03.925Z,41.83
2023-05-23T09:03:39.967Z,43.70
2023-05-23T09:06:12.861Z,39.87
2023-05-23T09:08:46.278Z,44.87
2023-05-23T09:11:18.362Z,42.83
2023-05-23T09:13:50.149Z,44.93
2023-05-23T09:16:22.009Z,41.73
2023-05-23T09:18:53.882Z,41.13
2023-05-23T09:21:26.268Z,40.97
2023-05-23T09:23:58.605Z,44.37
2023-05-23T09:26:30.477Z,38.43
2023-05-23T09:29:06.105Z,40.37
2023-05-23T09:31:37.901Z,38.80
2023-05-23T09:34:10.888Z,38.93
2023-05-23T09:36:44.128Z,35.40
2023-05-23T09:39:16.416Z,36.70
2023-05-23T09:41:51.275Z,31.03
2023-05-23T09:44:24.198Z,46.60
2023-05-23T09:46:56.016Z,34.00
2023-05-23T09:49:27.851Z,28.60
2023-05-23T09:52:01.367Z,30.83
2023-05-23T09:54:33.187Z,28.80
2023-05-23T09:57:10.829Z,24.63
2023-05-23T09:59:45.592Z,24.80
2023-05-23T10:02:22.644Z,27.17
2023-05-23T10:04:55.240Z,22.50
2023-05-23T10:07:28.305Z,22.57
2023-05-23T10:10:05.229Z,22.17
2023-05-23T10:12:40.042Z,23.23
2023-05-23T10:15:15.358Z,25.17
2023-05-23T10:18:07.788Z,24.07
2023-05-23T10:20:42.996Z,23.50
2023-05-23T10:23:16.564Z,20.93
2023-05-23T10:25:48.865Z,19.47
2023-05-23T10:28:21.547Z,21.60
2023-05-23T10:30:53.417Z,20.33
2023-05-23T10:33:28.358Z,22.60
2023-05-23T10:36:12.021Z,19.13
2023-05-23T10:39:10.060Z,19.47
2023-05-23T10:41:53.040Z,20.80
2023-05-23T10:44:30.851Z,20.37
2023-05-23T10:47:04.754Z,20.97
2023-05-23T10:49:47.599Z,21.53
2023-05-23T10:52:19.386Z,19.60
2023-05-23T10:54:52.764Z,20.07
2023-05-23T10:57:30.076Z,17.47
2023-05-23T11:00:01.954Z,26.50
2023-05-23T11:02:33.817Z,22.07
2023-05-23T11:05:33.377Z,17.03
2023-05-23T11:08:13.942Z,14.77
2023-05-23T11:11:01.686Z,16.87
2023-05-23T11:14:00.070Z,17.87
2023-05-23T11:16:42.776Z,19.20
2023-05-23T11:19:20.898Z,21.97
2023-05-23T11:22:03.552Z,22.07
2023-05-23T11:25:06.542Z,22.08
2023-05-23T11:27:40.320Z,24.57
2023-05-23T11:30:14.657Z,22.60
2023-05-23T11:32:55.816Z,19.20
2023-05-23T11:35:30.470Z,19.47
2023-05-23T11:38:04.390Z,21.17
2023-05-23T11:40:39.032Z,19.30
2023-05-23T11:43:14.141Z,19.10
2023-05-23T11:45:48.593Z,17.33
2023-05-23T11:48:20.400Z,20.17
2023-05-23T11:50:54.268Z,22.53
2023-05-23T11:53:27.943Z,29.33
2023-05-23T11:56:02.534Z,19.20
2023-05-23T11:58:38.675Z,18.33
2023-05-23T12:01:12.034Z,18.03
2023-05-23T12:03:48.820Z,19.70
2023-05-23T12:06:22.365Z,18.20
2023-05-23T12:08:54.219Z,19.57
2023-05-23T12:11:26.797Z,19.30
2023-05-23T12:14:01.256Z,17.30
2023-05-23T12:16:34.198Z,16.80
2023-05-23T12:19:06.889Z,21.70
2023-05-23T12:21:48.573Z,20.60
2023-05-23T12:24:22.296Z,22.00
2023-05-23T12:26:58.877Z,17.23
2023-05-23T12:29:34.733Z,15.80
2023-05-23T12:32:07.735Z,16.23
2023-05-23T12:34:43.251Z,17.63
2023-05-23T12:37:19.790Z,14.57
2023-05-23T12:39:52.192Z,13.20
2023-05-23T12:42:23.968Z,12.30
2023-05-23T12:44:55.709Z,11.87
2023-05-23T12:47:27.622Z,11.80
2023-05-23T12:49:59.613Z,12.90
2023-05-23T12:52:31.393Z,12.70
2023-05-23T12:55:03.830Z,10.30
2023-05-23T12:57:35.773Z,11.17
2023-05-23T13:00:08.283Z,11.30
2023-05-23T13:02:40.393Z,11.10
2023-05-23T13:05:12.388Z,10.40
2023-05-23T13:07:44.356Z,10.13
2023-05-23T13:10:16.223Z,10.63
2023-05-23T13:12:47.979Z,9.20
2023-05-23T13:15:20.137Z,9.67
2023-05-23T13:17:52.105Z,8.83
2023-05-23T13:20:23.895Z,10.37
2023-05-23T13:22:56.820Z,10.93
2023-05-23T13:25:28.722Z,8.77
2023-05-23T13:28:01.882Z,8.90
2023-05-23T13:30:35.042Z,8.77
2023-05-23T13:33:06.863Z,8.57
2023-05-23T13:35:38.880Z,8.87
2023-05-23T13:38:10.738Z,9.20
2023-05-23T13:40:42.646Z,8.60
2023-05-23T13:43:14.803Z,9.00
2023-05-23T13:45:47.525Z,8.93
2023-05-23T13:48:19.401Z,8.07
2023-05-23T13:50:51.205Z,8.03
2023-05-23T13:53:23.068Z,11.30
2023-05-23T13:55:54.916Z,10.13
2023-05-23T13:58:26.926Z,8.70
2023-05-23T14:00:58.708Z,9.27
2023-05-23T14:03:30.501Z,10.00
2023-05-23T14:06:04.886Z,10.47
2023-05-23T14:08:36.986Z,9.37
2023-05-23T14:11:08.866Z,9.03
2023-05-23T14:13:40.749Z,8.70
2023-05-23T14:16:12.717Z,8.70
2023-05-23T14:18:45.277Z,9.00
2023-05-23T14:21:17.156Z,8.43
2023-05-23T14:23:49.029Z,7.93
2023-05-23T14:26:22.375Z,8.37
2023-05-23T14:28:54.140Z,8.83
2023-05-23T14:31:26.028Z,7.70
2023-05-23T14:33:57.820Z,7.80
2023-05-23T14:36:29.658Z,10.30
2023-05-23T14:39:01.461Z,8.87
2023-05-23T14:41:33.216Z,9.30
2023-05-23T14:44:06.151Z,9.07
2023-05-23T14:46:38.085Z,8.30
2023-05-23T14:49:09.834Z,8.10
2023-05-23T14:51:49.858Z,8.07
2023-05-23T14:54:23.083Z,7.20
2023-05-23T14:56:54.849Z,6.77
2023-05-23T14:59:26.668Z,7.73
2023-05-23T15:01:58.522Z,8.27
2023-05-23T15:04:31.184Z,7.67
2023-05-23T15:07:03.142Z,7.50
2023-05-23T15:09:34.872Z,7.73
2023-05-23T15:12:09.645Z,7.67
2023-05-23T15:14:43.559Z,7.63
2023-05-23T15:17:20.009Z,8.10
2023-05-23T15:19:51.745Z,8.20
2023-05-23T15:25:01.967Z,8.00
2023-05-23T15:27:33.689Z,8.27
2023-05-23T15:30:06.105Z,7.50
2023-05-23T15:32:37.934Z,8.73
2023-05-23T15:35:09.974Z,7.53
2023-05-23T15:37:42.741Z,9.00
2023-05-23T15:40:14.666Z,8.33
2023-05-23T15:42:46.458Z,9.67
2023-05-23T15:45:18.172Z,8.23
2023-05-23T15:47:50.001Z,7.50
2023-05-23T15:50:21.871Z,8.93
2023-05-23T15:52:53.605Z,8.30
2023-05-23T15:55:25.344Z,7.60
2023-05-23T15:57:57.090Z,8.00
2023-05-23T16:00:28.851Z,7.90
2023-05-23T16:03:00.656Z,9.03
2023-05-23T16:05:33.528Z,8.33
2023-05-23T16:08:05.452Z,9.17
2023-05-23T16:10:37.185Z,8.05
2023-05-23T16:13:09.218Z,10.70
2023-05-23T16:15:41.121Z,7.70
2023-05-23T16:18:15.204Z,7.80
2023-05-23T16:20:47.068Z,9.27
2023-05-23T16:23:18.917Z,8.10
2023-05-23T16:25:50.679Z,9.83
2023-05-23T16:28:22.706Z,9.70
2023-05-23T16:30:55.692Z,8.60
2023-05-23T16:33:27.495Z,10.27
2023-05-23T16:35:59.329Z,9.47
2023-05-23T16:38:32.062Z,9.83
2023-05-23T16:41:04.002Z,11.00
2023-05-23T16:43:35.871Z,11.23
2023-05-23T16:46:07.926Z,14.47
2023-05-23T16:48:39.811Z,11.53
2023-05-23T16:51:11.755Z,15.13
2023-05-23T16:53:43.560Z,12.97
2023-05-23T16:56:15.393Z,13.83
2023-05-23T16:58:47.228Z,14.37
2023-05-23T17:01:19.972Z,13.90
2023-05-23T17:03:51.988Z,12.13
2023-05-23T17:06:24.074Z,13.60
2023-05-23T17:08:55.869Z,14.23
2023-05-23T17:11:27.574Z,14.77
2023-05-23T17:13:59.398Z,15.68
2023-05-23T17:16:33.346Z,15.60
2023-05-23T17:19:05.697Z,18.23
2023-05-23T17:21:37.607Z,19.20
2023-05-23T17:24:09.409Z,15.53
2023-05-23T17:26:41.264Z,15.30
2023-05-23T17:29:13.155Z,15.67
2023-05-23T17:31:45.007Z,15.50
2023-05-23T17:34:16.906Z,14.30
2023-05-23T17:36:48.703Z,14.00
2023-05-23T17:39:20.551Z,12.80
2023-05-23T17:41:52.300Z,13.87
2023-05-23T17:44:24.079Z,14.10
2023-05-23T17:46:56.045Z,14.20
2023-05-23T17:49:28.126Z,13.27
2023-05-23T17:52:04.680Z,13.50
2023-05-23T17:54:37.829Z,14.02
2023-05-23T17:57:09.649Z,15.60
2023-05-23T17:59:41.599Z,13.70
2023-05-23T18:02:13.353Z,11.77
2023-05-23T18:04:45.399Z,12.20
2023-05-23T18:07:20.768Z,11.47
2023-05-23T18:09:52.694Z,10.67
2023-05-23T18:12:24.502Z,11.70
2023-05-23T18:14:56.373Z,15.60
2023-05-23T18:17:28.169Z,12.00
2023-05-23T18:20:00.215Z,13.13
2023-05-23T18:22:33.460Z,11.73
2023-05-23T18:25:06.226Z,12.00
2023-05-23T18:27:38.010Z,11.97
2023-05-23T18:30:10.075Z,13.07
2023-05-23T18:32:41.982Z,15.32
2023-05-23T18:35:15.182Z,11.93
2023-05-23T18:37:48.054Z,12.30
2023-05-23T18:40:21.633Z,12.83
2023-05-23T18:42:53.970Z,10.87
2023-05-23T18:45:25.732Z,13.23
2023-05-23T18:47:58.158Z,12.70
2023-05-23T18:50:30.059Z,12.43
2023-05-23T18:53:01.807Z,12.90
2023-05-23T18:55:33.563Z,14.50
2023-05-23T18:58:05.398Z,14.07
2023-05-23T19:00:37.502Z,11.93
2023-05-23T19:03:09.549Z,13.67
2023-05-23T19:05:41.896Z,12.40
2023-05-23T19:08:13.887Z,14.37
2023-05-23T19:10:45.817Z,17.80
2023-05-23T19:13:19.291Z,13.33
2023-05-23T19:15:52.708Z,17.20
2023-05-23T19:18:24.479Z,15.63
2023-05-23T19:20:56.554Z,17.13
2023-05-23T19:23:28.437Z,17.00
2023-05-23T19:26:00.306Z,19.00
2023-05-23T19:28:32.160Z,16.90
2023-05-23T19:31:03.932Z,15.77
2023-05-23T19:33:35.922Z,16.33
2023-05-23T19:36:07.760Z,17.77
2023-05-23T19:38:39.593Z,16.30
2023-05-23T19:41:11.724Z,15.90
2023-05-23T19:43:43.537Z,16.00
2023-05-23T19:46:15.717Z,16.57
2023-05-23T19:48:48.714Z,16.87
2023-05-23T19:51:21.147Z,17.15
2023-05-23T19:53:54.493Z,17.10
2023-05-23T19:56:27.249Z,19.63
2023-05-23T19:58:59.085Z,18.53
2023-05-23T20:01:33.663Z,18.23
2023-05-23T20:04:07.074Z,17.23
2023-05-23T20:06:39.473Z,19.10
2023-05-23T20:09:11.293Z,17.67
2023-05-23T20:11:43.419Z,16.47
2023-05-23T20:14:15.231Z,20.83
2023-05-23T20:16:47.114Z,19.03
2023-05-23T20:19:18.945Z,16.77
2023-05-23T20:21:50.867Z,17.83
2023-05-23T20:24:22.659Z,19.47
2023-05-23T20:26:54.407Z,17.47
2023-05-23T20:29:26.231Z,17.37
2023-05-23T20:31:58.074Z,17.77
2023-05-23T20:34:29.979Z,21.97
2023-05-23T20:37:01.774Z,17.93
2023-05-23T20:39:33.604Z,12.97
2023-05-23T20:42:05.640Z,15.97
2023-05-23T20:44:38.236Z,14.17
2023-05-23T20:47:12.917Z,13.80
2023-05-23T20:49:47.620Z,14.90
2023-05-23T20:52:19.409Z,14.20
2023-05-23T20:54:52.403Z,13.03
2023-05-23T20:57:24.116Z,12.57
2023-05-23T20:59:56.260Z,11.77
2023-05-23T21:02:28.066Z,13.53
2023-05-23T21:04:59.979Z,11.57
2023-05-23T21:07:32.047Z,10.13
2023-05-23T21:10:04.683Z,11.93
2023-05-23T21:12:36.507Z,11.53
2023-05-23T21:15:09.837Z,10.97
2023-05-23T21:17:41.606Z,11.33
2023-05-23T21:20:13.925Z,9.77
2023-05-23T21:22:45.728Z,9.50
2023-05-23T21:25:17.820Z,9.77
2023-05-23T21:27:49.584Z,11.07
2023-05-23T21:30:21.628Z,9.70
2023-05-23T21:32:53.426Z,8.87
2023-05-23T21:35:25.332Z,8.70
2023-05-23T21:37:57.840Z,8.77
2023-05-23T21:40:29.587Z,9.73
2023-05-23T21:43:01.323Z,8.80
2023-05-23T21:45:33.098Z,8.77
2023-05-23T21:48:04.971Z,8.50
2023-05-23T21:50:36.772Z,8.50
2023-05-23T21:53:08.638Z,10.33
2023-05-23T21:55:40.361Z,8.23
2023-05-23T21:58:12.235Z,7.93
2023-05-23T22:00:45.604Z,9.00
2023-05-23T22:03:17.485Z,13.20
2023-05-23T22:05:49.341Z,9.27
2023-05-23T22:08:21.043Z,7.10
2023-05-23T22:10:52.822Z,9.40
2023-05-23T22:13:24.596Z,8.87
2023-05-23T22:15:56.689Z,7.80
2023-05-23T22:18:34.623Z,8.27
2023-05-23T22:21:15.504Z,8.57
2023-05-23T22:23:47.241Z,8.00
2023-05-23T22:26:20.109Z,8.30
2023-05-23T22:28:53.580Z,8.10
2023-05-23T22:31:26.394Z,7.20
2023-05-23T22:33:58.257Z,7.67
2023-05-23T22:36:30.030Z,11.70
2023-05-23T22:39:02.402Z,8.80
2023-05-23T22:41:35.788Z,8.70
2023-05-23T22:44:07.517Z,9.07
2023-05-23T22:46:42.826Z,9.15
2023-05-23T22:49:15.420Z,8.17
2023-05-23T22:51:48.168Z,9.40
2023-05-23T22:54:19.908Z,8.00
2023-05-23T22:56:51.748Z,9.33
2023-05-23T22:59:23.465Z,10.33
2023-05-23T23:01:55.266Z,9.43
2023-05-23T23:04:30.898Z,9.10
2023-05-23T23:07:02.689Z,15.33
2023-05-23T23:09:34.508Z,7.73
2023-05-23T23:12:06.469Z,8.23
2023-05-23T23:14:38.236Z,8.57
2023-05-23T23:17:10.445Z,9.93
2023-05-23T23:19:42.356Z,9.77
2023-05-23T23:22:14.089Z,8.97
2023-05-23T23:24:45.958Z,8.10
2023-05-23T23:27:17.728Z,12.13
2023-05-23T23:29:49.528Z,7.47
2023-05-23T23:32:21.244Z,7.20
2023-05-23T23:34:53.358Z,7.65
2023-05-23T23:37:25.169Z,8.20
2023-05-23T23:39:57.259Z,7.27
2023-05-23T23:42:29.074Z,8.60
2023-05-23T23:45:01.469Z,7.50
2023-05-23T23:47:33.302Z,7.30
2023-05-23T23:50:05.867Z,10.37
2023-05-23T23:52:37.628Z,9.90
2023-05-23T23:55:09.519Z,8.80
2023-05-23T23:57:41.425Z,7.10
